createdAt,value
2022-12-12T00:00:10.542Z,100.00
2022-12-12T00:02:40.800Z,100.00
2022-12-12T00:05:10.230Z,100.00
2022-12-12T00:07:37.741Z,100.00
2022-12-12T00:10:05.651Z,100.00
2022-12-12T00:12:32.723Z,100.00
2022-12-12T00:15:00.362Z,100.00
2022-12-12T00:17:27.950Z,100.00
2022-12-12T00:19:55.381Z,100.00
2022-12-12T00:22:22.715Z,100.00
2022-12-12T00:24:50.226Z,100.00
2022-12-12T00:27:17.542Z,100.00
2022-12-12T00:29:44.706Z,100.00
2022-12-12T00:32:11.960Z,100.00
2022-12-12T00:34:39.127Z,100.00
2022-12-12T00:37:06.317Z,100.00
2022-12-12T00:39:33.301Z,100.00
2022-12-12T00:42:01.022Z,100.00
2022-12-12T00:44:28.094Z,100.00
2022-12-12T00:46:55.127Z,100.00
2022-12-12T00:49:22.340Z,100.00
2022-12-12T00:51:49.894Z,100.00
2022-12-12T00:54:17.056Z,100.00
2022-12-12T00:56:44.232Z,100.00
2022-12-12T00:59:11.776Z,100.00
2022-12-12T01:01:38.908Z,100.00
2022-12-12T01:04:06.017Z,100.00
2022-12-12T01:06:35.731Z,100.00
2022-12-12T01:09:03.010Z,100.00
2022-12-12T01:11:30.303Z,100.00
2022-12-12T01:13:57.353Z,100.00
2022-12-12T01:16:25.225Z,100.00
2022-12-12T01:18:52.580Z,100.00
2022-12-12T01:21:20.681Z,100.00
2022-12-12T01:23:48.519Z,100.00
2022-12-12T01:26:19.260Z,100.00
2022-12-12T01:28:46.717Z,100.00
2022-12-12T01:31:14.441Z,100.00
2022-12-12T01:33:46.323Z,100.00
2022-12-12T01:36:16.914Z,100.00
2022-12-12T01:38:46.465Z,100.00
2022-12-12T01:41:15.040Z,100.00
2022-12-12T01:43:42.729Z,100.00
2022-12-12T01:46:33.463Z,100.00
2022-12-12T01:49:09.845Z,100.00
2022-12-12T01:51:42.237Z,100.00
2022-12-12T01:54:18.131Z,100.00
2022-12-12T01:56:48.408Z,100.00
2022-12-12T01:59:19.460Z,100.00
2022-12-12T02:01:47.981Z,100.00
2022-12-12T02:04:17.770Z,100.00
2022-12-12T02:06:51.436Z,100.00
2022-12-12T02:09:20.912Z,100.00
2022-12-12T02:11:56.473Z,100.00
2022-12-12T02:14:36.835Z,100.00
2022-12-12T02:17:20.166Z,100.00
2022-12-12T02:20:23.421Z,100.00
2022-12-12T02:23:12.045Z,100.00
2022-12-12T02:26:08.214Z,100.00
2022-12-12T02:28:47.168Z,100.00
2022-12-12T02:31:26.233Z,100.00
2022-12-12T02:34:00.018Z,100.00
2022-12-12T02:37:05.444Z,100.00
2022-12-12T02:39:44.612Z,100.00
2022-12-12T02:42:41.092Z,100.00
2022-12-12T02:45:17.065Z,100.00
2022-12-12T02:47:52.876Z,100.00
2022-12-12T02:50:26.011Z,100.00
2022-12-12T02:52:53.161Z,100.00
2022-12-12T02:55:20.786Z,100.00
2022-12-12T02:57:48.961Z,100.00
2022-12-12T03:00:20.353Z,100.00
2022-12-12T03:02:50.517Z,100.00
2022-12-12T03:05:36.351Z,100.00
2022-12-12T03:08:14.465Z,100.00
2022-12-12T03:10:48.104Z,100.00
2022-12-12T03:13:30.378Z,100.00
2022-12-12T03:16:13.664Z,100.00
2022-12-12T03:18:52.638Z,100.00
2022-12-12T03:21:31.952Z,100.00
2022-12-12T03:24:11.354Z,100.00
2022-12-12T03:26:52.431Z,100.00
2022-12-12T03:29:26.181Z,100.00
2022-12-12T03:31:56.362Z,100.00
2022-12-12T03:34:31.097Z,100.00
2022-12-12T03:37:09.458Z,100.00
2022-12-12T03:39:40.596Z,100.00
2022-12-12T03:42:20.210Z,100.00
2022-12-12T03:44:55.735Z,100.00
2022-12-12T03:47:48.589Z,100.00
2022-12-12T03:50:42.532Z,100.00
2022-12-12T03:53:16.228Z,100.00
2022-12-12T03:55:52.095Z,100.00
2022-12-12T03:58:35.051Z,100.00
2022-12-12T04:01:08.647Z,100.00
2022-12-12T04:04:09.646Z,100.00
2022-12-12T04:06:46.086Z,100.00
2022-12-12T04:09:35.206Z,100.00
2022-12-12T04:12:37.526Z,100.00
2022-12-12T04:15:17.874Z,100.00
2022-12-12T04:17:51.130Z,100.00
2022-12-12T04:21:01.422Z,100.00
2022-12-12T04:23:49.559Z,100.00
2022-12-12T04:26:39.815Z,100.00
2022-12-12T04:29:14.971Z,100.00
2022-12-12T04:31:57.413Z,100.00
2022-12-12T04:34:34.516Z,100.00
2022-12-12T04:37:06.402Z,100.00
2022-12-12T04:39:37.184Z,100.00
2022-12-12T04:42:06.145Z,100.00
2022-12-12T04:44:35.277Z,100.00
2022-12-12T04:47:04.167Z,100.00
2022-12-12T04:49:33.871Z,100.00
2022-12-12T04:52:08.810Z,100.00
2022-12-12T04:54:50.730Z,100.00
2022-12-12T04:57:26.524Z,100.00
2022-12-12T04:59:54.259Z,100.00
2022-12-12T05:02:34.495Z,100.00
2022-12-12T05:05:12.433Z,100.00
2022-12-12T05:07:43.435Z,100.00
2022-12-12T05:10:15.000Z,100.00
2022-12-12T05:12:48.983Z,100.00
2022-12-12T05:15:18.857Z,100.00
2022-12-12T05:17:58.512Z,100.00
2022-12-12T05:20:25.826Z,100.00
2022-12-12T05:22:52.972Z,100.00
2022-12-12T05:25:22.241Z,100.00
2022-12-12T05:27:49.277Z,100.00
2022-12-12T05:30:16.963Z,100.00
2022-12-12T05:32:44.704Z,100.00
2022-12-12T05:35:16.213Z,100.00
2022-12-12T05:37:48.245Z,100.00
2022-12-12T05:40:20.119Z,100.00
2022-12-12T05:42:48.998Z,100.00
2022-12-12T05:45:18.152Z,100.00
2022-12-12T05:47:47.279Z,100.00
2022-12-12T05:50:15.183Z,100.00
2022-12-12T05:52:43.928Z,100.00
2022-12-12T05:55:14.877Z,100.00
2022-12-12T05:57:46.105Z,100.00
2022-12-12T06:00:14.659Z,100.00
2022-12-12T06:02:43.368Z,100.00
2022-12-12T06:05:11.195Z,100.00
2022-12-12T06:07:39.806Z,100.00
2022-12-12T06:10:08.345Z,100.00
2022-12-12T06:12:38.189Z,100.00
2022-12-12T06:15:07.578Z,100.00
2022-12-12T06:17:38.728Z,100.00
2022-12-12T06:20:07.538Z,100.00
2022-12-12T06:22:36.693Z,100.00
2022-12-12T06:25:05.265Z,100.00
2022-12-12T06:27:33.300Z,100.00
2022-12-12T06:30:01.532Z,100.00
2022-12-12T06:32:30.571Z,100.00
2022-12-12T06:34:59.431Z,100.00
2022-12-12T06:37:28.490Z,100.00
2022-12-12T06:39:56.648Z,100.00
2022-12-12T06:42:25.853Z,100.00
2022-12-12T06:44:53.623Z,100.00
2022-12-12T06:47:21.165Z,100.00
2022-12-12T06:49:49.207Z,100.00
2022-12-12T06:52:17.108Z,100.00
2022-12-12T06:54:44.467Z,100.00
2022-12-12T06:57:13.203Z,100.00
2022-12-12T06:59:40.822Z,100.00
2022-12-12T07:02:11.526Z,100.00
2022-12-12T07:04:39.495Z,100.00
2022-12-12T07:07:07.299Z,100.00
2022-12-12T07:09:36.928Z,100.00
2022-12-12T07:12:05.471Z,100.00
2022-12-12T07:14:33.272Z,100.00
2022-12-12T07:17:01.258Z,100.00
2022-12-12T07:19:29.585Z,100.00
2022-12-12T07:21:57.330Z,100.00
2022-12-12T10:00:18.153Z,100.00
2022-12-12T10:02:55.332Z,100.00
2022-12-12T10:05:27.299Z,100.00
2022-12-12T10:08:01.071Z,100.00
2022-12-12T10:10:39.132Z,100.00
2022-12-12T10:13:19.131Z,100.00
2022-12-12T10:16:09.297Z,100.00
2022-12-12T10:19:03.417Z,100.00
2022-12-12T10:21:33.376Z,99.33
2022-12-12T10:24:25.399Z,98.57
2022-12-12T10:26:54.828Z,98.87
2022-12-12T10:29:26.120Z,98.20
2022-12-12T10:32:23.589Z,97.79
2022-12-12T10:38:21.488Z,95.75
2022-12-12T10:40:57.102Z,94.92
2022-12-12T10:43:34.538Z,94.78
2022-12-12T10:46:17.879Z,94.11
2022-12-12T10:48:47.362Z,93.43
2022-12-12T10:51:18.026Z,93.05
2022-12-12T10:57:20.178Z,92.44
2022-12-12T10:59:48.928Z,92.27
2022-12-12T11:05:25.258Z,91.71
2022-12-12T11:08:22.836Z,92.46
2022-12-12T11:11:42.280Z,91.77
2022-12-12T11:14:27.435Z,90.60
2022-12-12T11:16:54.583Z,91.45
2022-12-12T11:19:24.090Z,90.83
2022-12-12T11:21:53.615Z,91.28
2022-12-12T11:24:29.947Z,91.94
2022-12-12T11:26:59.945Z,91.59
2022-12-12T11:29:48.764Z,90.72
2022-12-12T11:32:29.045Z,92.23
2022-12-12T11:35:02.049Z,92.34
2022-12-12T11:37:46.863Z,91.85
2022-12-12T11:40:33.201Z,92.14
2022-12-12T11:43:19.164Z,91.96
2022-12-12T11:46:19.369Z,92.21
2022-12-12T11:48:52.610Z,91.82
2022-12-12T11:51:38.120Z,91.12
2022-12-12T11:54:15.485Z,90.49
2022-12-12T11:56:54.108Z,91.89
2022-12-12T11:59:33.176Z,92.26
2022-12-12T12:02:41.201Z,91.74
2022-12-12T12:05:46.104Z,91.07
2022-12-12T12:08:15.557Z,91.41
2022-12-12T12:11:10.699Z,91.56
2022-12-12T12:13:41.059Z,91.67
2022-12-12T12:16:20.528Z,91.32
2022-12-12T12:18:51.184Z,91.58
2022-12-12T12:21:24.343Z,91.76
2022-12-12T12:24:13.366Z,91.47
2022-12-12T12:27:01.523Z,91.67
2022-12-12T12:29:45.473Z,91.24
2022-12-12T12:33:00.153Z,91.33
2022-12-12T12:35:42.310Z,91.28
2022-12-12T12:38:27.426Z,91.07
2022-12-12T12:41:14.334Z,91.41
2022-12-12T12:44:19.952Z,91.15
2022-12-12T12:47:16.645Z,91.96
2022-12-12T12:50:07.129Z,91.33
2022-12-12T12:52:49.033Z,91.17
2022-12-12T12:55:25.432Z,90.64
2022-12-12T12:57:53.623Z,91.06
2022-12-12T13:00:27.783Z,91.56
2022-12-12T13:03:18.733Z,91.56
2022-12-12T13:05:55.189Z,91.64
2022-12-12T13:08:44.954Z,91.31
2022-12-12T13:11:38.808Z,91.49
2022-12-12T13:14:19.636Z,91.55
2022-12-12T13:16:49.713Z,91.72
2022-12-12T13:19:41.218Z,91.67
2022-12-12T13:22:17.185Z,91.81
2022-12-12T13:24:54.958Z,92.70
2022-12-12T13:27:50.644Z,92.73
2022-12-12T13:30:36.711Z,92.33
2022-12-12T13:33:14.341Z,93.05
2022-12-12T13:35:46.465Z,92.98
2022-12-12T13:38:34.013Z,92.84
2022-12-12T13:41:08.469Z,93.15
2022-12-12T13:43:39.070Z,93.56
2022-12-12T13:46:29.119Z,93.82
2022-12-12T13:49:16.165Z,93.85
2022-12-12T13:51:45.762Z,94.11
2022-12-12T13:54:14.603Z,93.51
2022-12-12T13:56:47.102Z,93.88
2022-12-12T13:59:26.474Z,94.56
2022-12-12T14:02:22.723Z,93.94
2022-12-12T14:05:13.773Z,94.76
2022-12-12T18:25:35.921Z,100.00
2022-12-12T18:28:02.745Z,100.00
2022-12-12T18:30:28.921Z,100.00
2022-12-12T18:33:02.640Z,100.00
2022-12-12T18:35:30.491Z,100.00
2022-12-12T18:37:57.613Z,100.00
2022-12-12T18:40:26.155Z,100.00
2022-12-12T18:42:53.351Z,100.00
2022-12-12T18:45:20.621Z,100.00
2022-12-12T18:47:47.591Z,100.00
2022-12-12T18:50:14.606Z,100.00
2022-12-12T18:52:41.543Z,100.00
2022-12-12T18:55:08.646Z,100.00
2022-12-12T18:57:35.456Z,100.00
2022-12-12T19:00:03.107Z,100.00
2022-12-12T19:02:29.768Z,100.00
2022-12-12T19:04:58.899Z,100.00
2022-12-12T19:07:25.871Z,100.00
2022-12-12T19:09:53.358Z,100.00
2022-12-12T19:12:20.973Z,100.00
2022-12-12T19:17:35.865Z,100.00
2022-12-12T19:20:03.121Z,100.00
2022-12-12T19:22:46.924Z,100.00
2022-12-12T19:25:16.059Z,100.00
2022-12-12T19:27:43.828Z,100.00
2022-12-12T19:30:12.932Z,100.00
2022-12-12T19:32:40.109Z,100.00
2022-12-12T19:35:07.543Z,100.00
2022-12-12T19:37:36.606Z,100.00
2022-12-12T19:40:06.598Z,100.00
2022-12-12T19:42:33.917Z,100.00
2022-12-12T19:45:00.936Z,100.00
2022-12-12T19:47:28.284Z,100.00
2022-12-12T19:49:55.508Z,100.00
2022-12-12T19:52:22.931Z,100.00
2022-12-12T19:54:50.221Z,100.00
2022-12-12T19:57:17.457Z,100.00
2022-12-12T19:59:44.762Z,100.00
2022-12-12T20:02:11.931Z,100.00
2022-12-12T20:04:39.620Z,100.00
2022-12-12T20:07:07.011Z,100.00
2022-12-12T20:09:36.124Z,100.00
2022-12-12T20:12:03.941Z,100.00
2022-12-12T20:14:33.795Z,100.00
2022-12-12T20:17:03.026Z,100.00
2022-12-12T20:19:33.033Z,100.00
2022-12-12T20:22:02.147Z,100.00
2022-12-12T20:24:30.783Z,100.00
2022-12-12T20:26:59.859Z,100.00
2022-12-12T20:29:27.543Z,100.00
2022-12-12T20:31:55.111Z,100.00
2022-12-12T20:34:24.620Z,100.00
2022-12-12T20:36:55.516Z,100.00
2022-12-12T20:39:25.053Z,100.00
2022-12-12T20:41:53.947Z,100.00
2022-12-12T20:44:22.812Z,100.00
2022-12-12T20:46:49.855Z,100.00
2022-12-12T20:49:19.885Z,100.00
2022-12-12T20:51:58.009Z,100.00
2022-12-12T20:54:27.974Z,100.00
2022-12-12T20:56:55.565Z,100.00
2022-12-12T20:59:22.800Z,100.00
2022-12-12T21:01:50.119Z,100.00
2022-12-12T21:04:17.355Z,100.00
2022-12-12T21:06:48.625Z,100.00
2022-12-12T21:09:23.192Z,100.00
2022-12-12T21:11:53.934Z,100.00
2022-12-12T21:14:21.314Z,100.00
2022-12-12T21:16:48.663Z,100.00
2022-12-12T21:19:16.303Z,100.00
2022-12-12T21:21:44.177Z,100.00
2022-12-12T21:24:16.250Z,100.00
2022-12-12T21:26:44.261Z,100.00
2022-12-12T21:29:11.741Z,100.00
2022-12-12T21:31:49.836Z,100.00
2022-12-12T21:34:20.284Z,100.00
2022-12-12T21:36:54.004Z,100.00
2022-12-12T21:39:24.324Z,100.00
2022-12-12T21:41:51.791Z,100.00
2022-12-12T21:44:20.053Z,100.00
2022-12-12T21:46:48.088Z,100.00
2022-12-12T21:49:41.507Z,100.00
2022-12-12T21:52:12.896Z,100.00
2022-12-12T21:54:40.279Z,100.00
2022-12-12T21:57:08.273Z,100.00
2022-12-12T21:59:37.784Z,100.00
2022-12-12T22:02:06.536Z,100.00
2022-12-12T22:04:33.516Z,100.00
2022-12-12T22:07:00.662Z,100.00
2022-12-12T22:09:28.054Z,100.00
2022-12-12T22:12:02.915Z,100.00
2022-12-12T22:14:31.525Z,100.00
2022-12-12T22:16:59.094Z,100.00
2022-12-12T22:19:26.447Z,100.00
2022-12-12T22:21:53.713Z,100.00
2022-12-12T22:24:20.875Z,100.00
2022-12-12T22:26:50.283Z,100.00
2022-12-12T22:29:19.433Z,100.00
2022-12-12T22:31:50.100Z,100.00
2022-12-12T22:34:20.977Z,100.00
2022-12-12T22:36:48.840Z,100.00
2022-12-12T22:39:19.921Z,100.00
2022-12-12T22:41:47.048Z,100.00
2022-12-12T22:44:19.791Z,100.00
2022-12-12T22:46:49.181Z,100.00
2022-12-12T22:49:22.882Z,100.00
2022-12-12T22:51:50.359Z,100.00
2022-12-12T22:54:17.991Z,100.00
2022-12-12T22:56:45.530Z,100.00
2022-12-12T22:59:14.264Z,100.00
2022-12-12T23:01:42.616Z,100.00
2022-12-12T23:04:13.065Z,100.00
2022-12-12T23:06:41.417Z,100.00
2022-12-12T23:09:17.913Z,100.00
2022-12-12T23:11:45.464Z,100.00
2022-12-12T23:14:15.916Z,100.00
2022-12-12T23:16:44.444Z,100.00
2022-12-12T23:19:14.507Z,100.00
2022-12-12T23:21:41.888Z,100.00
2022-12-12T23:24:09.544Z,100.00
2022-12-12T23:26:37.530Z,100.00
2022-12-12T23:29:08.302Z,100.00
2022-12-12T23:31:37.730Z,100.00
2022-12-12T23:34:08.629Z,100.00
2022-12-12T23:36:36.006Z,100.00
2022-12-12T23:39:06.591Z,100.00
2022-12-12T23:41:35.478Z,100.00
2022-12-12T23:44:03.267Z,100.00
2022-12-12T23:46:33.858Z,100.00
2022-12-12T23:49:20.746Z,100.00
2022-12-12T23:51:52.757Z,100.00
2022-12-12T23:54:35.193Z,100.00
2022-12-12T23:57:03.163Z,100.00
2022-12-12T23:59:31.551Z,100.00
